Main page
METAR-TAF:

METAR-TAF

Airports :

Baghdad International Airport

Baghdad, Iraq

latitude: 33-15-45N, longitude: 44-14-04E, elevation: 35 m

Current weather observation

The report was made 59 minutes ago, at 22:00 UTC
Wind 6 kt from the West/Southwest
Temperature 15°C
Humidity 77%
Pressure 1020 hPa
Visibility 10 km or more
no clouds below 1500 m and no cumulonimbus

METAR: ORBI 192200Z 25006KT CAVOK 15/11 Q1020 NOSIG

Time: 01:59 (22:59 UTC)

Forecast

The report was made 5 hours and 59 minutes ago, at 17:00 UTC
Forecast valid from 19 at 18 UTC to 20 at 18 UTC
Wind 8 kt from the Northwest
Visibility: 7000 m
Scattered clouds at a height of 4000 ft

TAF: ORBI 191700Z 1918/2018 31008KT 7000 SCT040

Weather observations and forecasts of more than 4000 airports (METAR and TAF reports).

The available stations are represented by yellow and red dots on the map.

Hover mouse over dot to see the name of the station.

Then click to see weather observations and forecasts.

To change the map : click on the green buttons with a black cross to zoom in, on the green button with a dash to zoom out, or on the green arrows for adjacent maps.


METAR-TAF: